Time;durP1;ratioP1;P1;durP2;ratioP2;P2;SDS_P1;SDS_P2;PMS_P1;PMS_P2;Temp;Humidity;BMP_temperature;BMP_pressure;BME280_temperature;BME280_humidity;BME280_pressure;Samples;Min_cycle;Max_cycle;Signal;HPM_P1;HPM_P2
2022/03/17 00:00:23;;;;;;;;;;;0.90;82.90;;;-0.48;78.54;97170.25;4008157;34;20216;-86
2022/03/17 00:02:51;;;;;;;;;;;0.90;82.90;;;-0.45;78.43;97177.94;3984499;34;20206;-86
2022/03/17 00:05:20;;;;;;;;;;;0.90;83.00;;;-0.45;78.58;97177.94;3997920;34;19914;-85
2022/03/17 00:07:48;;;;;;;;;;;0.90;83.00;;;-0.45;78.42;97186.00;3980930;35;20236;-86
2022/03/17 00:10:17;;;;;;;;;;;0.90;83.00;;;-0.47;78.61;97180.00;3982436;35;19909;-85
2022/03/17 00:12:47;;;;;;;;;;;0.90;83.00;;;-0.43;78.26;97188.53;4001662;34;19905;-85
2022/03/17 00:15:17;;;;;;;;;;;0.90;83.00;;;-0.44;78.54;97174.25;3980356;35;19905;-85
2022/03/17 00:17:46;;;;;;;;;;;0.90;83.00;;;-0.44;78.34;97179.63;3960369;35;20243;-86
2022/03/17 00:20:14;;;;;;;;;;;1.00;83.00;;;-0.45;78.38;97182.50;3983263;35;19905;-86
2022/03/17 00:22:43;;;;;;;;;;;0.90;83.00;;;-0.45;78.16;97191.38;3983162;35;20230;-85
2022/03/17 00:25:12;;;;;;;;;;;0.90;83.00;;;-0.44;78.38;97189.56;3982852;35;19905;-85
2022/03/17 00:27:40;;;;;;;;;;;0.90;83.00;;;-0.45;78.64;97188.69;3963422;35;20202;-85
2022/03/17 00:30:10;;;;;;;;;;;0.90;83.00;;;-0.45;78.33;97191.38;3984418;35;19990;-86
2022/03/17 00:32:40;;;;;;;;;;;0.90;83.00;;;-0.45;78.61;97199.47;3963647;35;19921;-86
2022/03/17 00:37:55;;;;;;;;;;;0.90;83.00;;;-0.44;78.54;97195.75;3984420;34;20218;-86
2022/03/17 00:40:24;;;;;;;;;;;0.90;82.90;;;-0.46;78.43;97195.13;3982586;34;19912;-86
2022/03/17 00:42:53;;;;;;;;;;;0.90;83.10;;;-0.44;78.61;97198.44;3981890;34;20220;-86
2022/03/17 00:45:22;;;;;;;;;;;1.00;83.00;;;-0.43;78.59;97202.81;3998889;34;19912;-86
2022/03/17 00:47:51;;;;;;;;;;;0.90;83.00;;;-0.44;78.72;97195.75;3998665;34;20197;-86
2022/03/17 00:50:20;;;;;;;;;;;0.90;83.10;;;-0.46;78.43;97192.44;3998559;34;20228;-85
2022/03/17 00:52:48;;;;;;;;;;;1.00;83.00;;;-0.44;78.60;97197.63;3973473;35;19912;-86
2022/03/17 00:55:17;;;;;;;;;;;0.90;83.90;;;-0.43;78.82;97196.63;3972119;35;20255;-86
2022/03/17 00:57:46;;;;;;;;;;;0.90;83.10;;;-0.44;78.81;97194.94;3946563;35;20228;-86
2022/03/17 01:00:16;;;;;;;;;;;0.90;83.10;;;-0.44;78.56;97190.38;3926293;35;19906;-86
2022/03/17 01:02:45;;;;;;;;;;;0.90;83.10;;;-0.43;78.24;97194.75;3925941;35;20205;-86
2022/03/17 01:05:15;;;;;;;;;;;0.90;83.10;;;-0.44;78.43;97195.75;3946958;35;20197;-86
2022/03/17 01:07:43;;;;;;;;;;;0.90;83.10;;;-0.43;78.53;97194.75;3994600;34;19905;-86
2022/03/17 01:10:15;;;;;;;;;;;0.90;83.10;;;-0.43;78.42;97202.00;3998484;34;20225;-86
2022/03/17 01:12:44;;;;;;;;;;;0.90;83.10;;;-0.43;78.37;97202.81;3998823;34;19905;-85
2022/03/17 01:15:13;;;;;;;;;;;0.90;83.00;;;-0.45;78.69;97202.16;3976992;34;19920;-85
2022/03/17 01:17:41;;;;;;;;;;;0.90;83.80;;;-0.43;78.54;97202.81;3975987;34;20212;-86
2022/03/17 01:20:11;;;;;;;;;;;0.90;83.00;;;-0.45;78.35;97204.03;3999766;34;20093;-86
2022/03/17 01:22:41;;;;;;;;;;;1.00;83.00;;;-0.43;78.51;97207.38;3976677;34;20214;-86
2022/03/17 01:25:10;;;;;;;;;;;0.90;83.00;;;-0.45;78.49;97199.47;3978351;34;20546;-86
2022/03/17 01:27:38;;;;;;;;;;;1.00;83.00;;;-0.44;78.51;97209.22;3983711;34;20211;-86
2022/03/17 01:30:09;;;;;;;;;;;0.90;83.00;;;-0.44;78.72;97205.69;3984054;34;20225;-86
2022/03/17 01:32:38;;;;;;;;;;;1.00;83.00;;;-0.45;78.14;97212.91;3984442;34;19905;-86
2022/03/17 01:35:08;;;;;;;;;;;0.90;82.90;;;-0.44;78.26;97216.47;3984057;34;20231;-86
2022/03/17 01:37:37;;;;;;;;;;;0.90;82.80;;;-0.44;78.24;97211.91;4006035;34;19904;-85
2022/03/17 01:40:08;;;;;;;;;;;0.90;82.80;;;-0.44;78.41;97217.28;4007688;34;20291;-85
2022/03/17 01:42:37;;;;;;;;;;;0.90;82.90;;;-0.43;78.65;97223.50;3985809;34;19905;-85
2022/03/17 01:45:07;;;;;;;;;;;0.90;82.90;;;-0.42;78.30;97217.13;3987458;34;19905;-85
2022/03/17 01:47:36;;;;;;;;;;;0.90;82.90;;;-0.43;78.60;97212.75;3986478;34;20220;-85
2022/03/17 01:50:07;;;;;;;;;;;0.90;82.90;;;-0.44;78.19;97217.28;4007489;34;20242;-85
2022/03/17 01:52:36;;;;;;;;;;;0.90;83.00;;;-0.44;78.23;97217.28;3988693;34;20223;-85
2022/03/17 01:55:07;;;;;;;;;;;0.90;82.90;;;-0.44;78.00;97228.03;3985122;35;19914;-85
2022/03/17 01:57:36;;;;;;;;;;;0.90;82.90;;;-0.44;78.85;97222.66;4006425;35;19912;-85
2022/03/17 02:00:05;;;;;;;;;;;0.90;83.00;;;-0.44;78.55;97228.03;4007095;35;20227;-85
2022/03/17 02:02:42;;;;;;;;;;;1.00;82.80;;;-0.43;78.32;97234.28;4006926;35;19905;-86
2022/03/17 02:05:11;;;;;;;;;;;1.00;82.80;;;-0.46;78.10;97230.09;3985616;35;20217;-85
2022/03/17 02:07:41;;;;;;;;;;;0.90;82.80;;;-0.46;78.32;97235.47;3973374;35;20229;-86
2022/03/17 02:10:11;;;;;;;;;;;0.90;82.70;;;-0.46;78.37;97235.47;3981586;35;20219;-85
2022/03/17 02:15:27;;;;;;;;;;;0.90;82.70;;;-0.43;78.15;97243.16;3959187;35;20094;-85
2022/03/17 02:17:56;;;;;;;;;;;0.90;82.70;;;-0.43;78.08;97239.66;3979981;35;20158;-85
2022/03/17 02:20:25;;;;;;;;;;;0.90;82.60;;;-0.43;78.01;97242.34;3960241;35;19913;-85
2022/03/17 02:22:55;;;;;;;;;;;0.90;82.70;;;-0.45;78.10;97239.81;3981508;35;19906;-85
2022/03/17 02:25:36;;;;;;;;;;;1.00;82.60;;;-0.44;78.25;97243.34;3982092;35;20208;-86
2022/03/17 02:28:06;;;;;;;;;;;0.90;82.60;;;-0.44;78.01;97244.19;3978180;35;20202;-86
2022/03/17 02:30:38;;;;;;;;;;;0.90;82.60;;;-0.47;78.04;97240.00;3980322;35;20264;-85
2022/03/17 02:33:08;;;;;;;;;;;0.90;82.50;;;-0.46;78.43;97240.84;3980485;35;20207;-85
2022/03/17 02:35:37;;;;;;;;;;;0.90;82.60;;;-0.44;78.25;97243.34;3980739;35;19905;-85
2022/03/17 02:38:06;;;;;;;;;;;0.90;82.60;;;-0.44;78.19;97249.56;3979883;35;20260;-86
2022/03/17 02:40:37;;;;;;;;;;;1.00;82.60;;;-0.44;78.24;97257.63;3960512;35;19906;-86
2022/03/17 02:44:02;;;;;;;;;;;0.90;82.70;;;-0.44;78.13;97257.63;3959366;35;20204;-85
2022/03/17 02:47:09;;;;;;;;;;;0.90;82.70;;;-0.44;78.13;97265.69;3986264;35;20212;-85
2022/03/17 02:49:38;;;;;;;;;;;1.00;82.70;;;-0.44;78.36;97268.38;3957391;35;20200;-85
2022/03/17 02:52:07;;;;;;;;;;;0.90;82.70;;;-0.46;78.15;97270.44;3978920;35;19912;-85
2022/03/17 02:54:36;;;;;;;;;;;0.90;82.70;;;-0.43;78.16;97278.13;4004786;34;20233;-86
2022/03/17 02:57:07;;;;;;;;;;;0.90;82.60;;;-0.46;78.05;97273.13;4006309;34;19905;-85
2022/03/17 02:59:36;;;;;;;;;;;0.90;82.60;;;-0.45;78.04;97277.47;3985161;34;20085;-86
2022/03/17 03:02:05;;;;;;;;;;;0.90;82.60;;;-0.45;78.69;97274.78;3985441;34;19905;-86
2022/03/17 03:04:34;;;;;;;;;;;0.90;82.70;;;-0.44;78.29;97281.84;3985502;34;20189;-86
2022/03/17 03:07:04;;;;;;;;;;;0.90;82.60;;;-0.45;78.46;97288.22;3984682;34;20124;-85
2022/03/17 03:09:33;;;;;;;;;;;0.90;82.70;;;-0.44;78.33;97287.22;3987045;34;20057;-85
2022/03/17 03:12:11;;;;;;;;;;;0.90;82.70;;;-0.45;78.18;97288.22;3987547;34;20526;-85
2022/03/17 03:14:40;;;;;;;;;;;0.90;82.70;;;-0.43;78.41;97290.75;4009256;34;19916;-85
2022/03/17 03:17:10;;;;;;;;;;;0.90;82.70;;;-0.45;78.49;97293.63;3987075;34;20225;-85
2022/03/17 03:19:39;;;;;;;;;;;0.90;82.70;;;-0.44;78.32;97295.28;3987537;34;20200;-85
2022/03/17 03:22:13;;;;;;;;;;;1.00;82.60;;;-0.44;78.04;97297.97;3989156;34;19905;-85
2022/03/17 03:24:43;;;;;;;;;;;0.90;82.60;;;-0.43;78.01;97298.84;3987907;34;20206;-85
2022/03/17 03:27:13;;;;;;;;;;;0.90;82.60;;;-0.44;78.24;97297.97;3987233;34;20200;-86
2022/03/17 03:29:41;;;;;;;;;;;0.90;82.60;;;-0.45;78.02;97296.31;4008727;34;20206;-86
2022/03/17 03:32:10;;;;;;;;;;;0.90;82.50;;;-0.44;77.92;97297.97;3986994;34;19948;-86
2022/03/17 03:34:38;;;;;;;;;;;0.90;82.60;;;-0.44;78.07;97302.53;3985117;34;20211;-86
2022/03/17 03:37:24;;;;;;;;;;;0.90;82.60;;;-0.44;78.15;97303.38;3986740;34;19905;-86
2022/03/17 03:39:53;;;;;;;;;;;0.90;82.70;;;-0.44;78.63;97308.75;3983406;34;19912;-86
2022/03/17 03:42:24;;;;;;;;;;;0.90;82.60;;;-0.44;78.08;97306.06;4000979;34;20551;-86
2022/03/17 03:44:53;;;;;;;;;;;1.00;82.70;;;-0.44;78.54;97310.59;3977891;34;19909;-86
2022/03/17 03:47:26;;;;;;;;;;;0.90;82.60;;;-0.44;78.33;97311.44;4000291;34;20458;-86
2022/03/17 03:49:57;;;;;;;;;;;0.90;82.60;;;-0.46;78.31;97313.47;3999498;34;19912;-86
2022/03/17 03:52:25;;;;;;;;;;;1.00;82.70;;;-0.45;78.11;97320.50;3977153;34;20522;-85
2022/03/17 03:54:54;;;;;;;;;;;0.90;82.60;;;-0.45;78.24;97323.19;3996338;34;19916;-86
2022/03/17 03:57:24;;;;;;;;;;;0.90;82.60;;;-0.45;78.37;97327.75;3974644;34;20220;-86
2022/03/17 03:59:53;;;;;;;;;;;0.90;82.70;;;-0.44;78.43;97329.44;3975603;34;19905;-86
2022/03/17 04:02:21;;;;;;;;;;;0.90;82.70;;;-0.44;78.45;97332.94;3996850;34;20230;-86
2022/03/17 04:04:50;;;;;;;;;;;0.90;82.70;;;-0.45;78.36;97339.34;3976065;34;20236;-85
2022/03/17 04:07:19;;;;;;;;;;;0.90;82.80;;;-0.45;78.18;97331.28;3974806;34;19905;-85
2022/03/17 04:09:47;;;;;;;;;;;0.90;82.70;;;-0.45;77.99;97333.97;3997588;34;20203;-86
2022/03/17 04:12:16;;;;;;;;;;;0.90;82.50;;;-0.46;78.09;97340.38;3976465;34;19905;-86
2022/03/17 04:14:46;;;;;;;;;;;0.90;82.60;;;-0.44;78.30;97350.97;3975921;34;20533;-85
2022/03/17 04:17:14;;;;;;;;;;;0.90;82.50;;;-0.45;78.24;97355.47;3998594;34;20196;-85
2022/03/17 04:19:43;;;;;;;;;;;0.90;82.50;;;-0.45;78.30;97360.03;3999831;34;19905;-85
2022/03/17 04:22:11;;;;;;;;;;;0.90;82.70;;;-0.45;78.15;97354.66;3998549;34;20205;-85
2022/03/17 04:24:40;;;;;;;;;;;1.00;82.80;;;-0.45;78.01;97360.88;3977111;34;19905;-85
2022/03/17 04:27:08;;;;;;;;;;;1.00;82.70;;;-0.45;78.17;97365.41;3981436;34;20232;-85
2022/03/17 04:29:37;;;;;;;;;;;0.90;82.80;;;-0.46;78.31;97372.66;3983136;34;19904;-85
2022/03/17 04:32:09;;;;;;;;;;;0.90;82.80;;;-0.45;78.09;97363.56;4004468;34;20206;-85
2022/03/17 04:34:37;;;;;;;;;;;0.90;82.60;;;-0.45;78.14;97371.63;3978150;34;19913;-85
2022/03/17 04:37:06;;;;;;;;;;;0.90;82.60;;;-0.45;77.62;97366.25;3977520;34;20210;-85
2022/03/17 04:39:35;;;;;;;;;;;0.90;82.00;;;-0.45;77.24;97371.63;4006046;34;19912;-85
2022/03/17 04:42:04;;;;;;;;;;;0.90;81.50;;;-0.46;77.31;97375.34;4006225;34;20204;-85
2022/03/17 04:44:33;;;;;;;;;;;0.90;81.70;;;-0.45;77.68;97387.75;3983805;34;19916;-85
2022/03/17 04:47:02;;;;;;;;;;;1.00;82.00;;;-0.45;77.31;97376.19;3983456;34;20553;-86
2022/03/17 04:49:33;;;;;;;;;;;0.90;81.90;;;-0.45;76.84;97389.63;3983873;34;20250;-85
2022/03/17 04:52:01;;;;;;;;;;;0.90;81.40;;;-0.44;76.99;97394.00;3984031;34;20570;-85
2022/03/17 04:54:30;;;;;;;;;;;0.90;81.50;;;-0.45;77.88;97395.00;4006066;34;19905;-85
2022/03/17 04:56:58;;;;;;;;;;;1.00;81.90;;;-0.44;77.96;97399.38;4003971;34;19917;-86
2022/03/17 04:59:27;;;;;;;;;;;0.90;82.50;;;-0.44;78.16;97408.28;4004650;34;20229;-86
2022/03/17 05:01:56;;;;;;;;;;;0.90;82.60;;;-0.48;78.07;97406.97;3984054;34;19904;-86
2022/03/17 05:04:24;;;;;;;;;;;0.90;82.40;;;-0.45;77.46;97403.91;3992644;34;20224;-87
2022/03/17 05:06:54;;;;;;;;;;;0.90;81.50;;;-0.44;76.86;97416.34;3979111;35;20234;-86
2022/03/17 05:09:23;;;;;;;;;;;0.90;81.00;;;-0.46;76.74;97423.78;3979980;35;20212;-86
2022/03/17 05:11:53;;;;;;;;;;;0.90;81.10;;;-0.46;76.38;97418.41;3980705;35;20216;-85
2022/03/17 05:14:22;;;;;;;;;;;0.90;80.70;;;-0.45;76.24;97420.03;3981634;35;20205;-85
2022/03/17 05:16:50;;;;;;;;;;;0.90;80.40;;;-0.45;75.79;97420.03;3980711;35;19906;-85
2022/03/17 05:19:19;;;;;;;;;;;0.90;80.10;;;-0.47;76.82;97419.41;3960819;35;20227;-87
2022/03/17 05:21:48;;;;;;;;;;;0.90;81.00;;;-0.45;76.26;97425.44;3981306;35;19906;-85
2022/03/17 05:24:17;;;;;;;;;;;1.00;81.60;;;-0.45;76.13;97430.81;3981318;35;20200;-86
2022/03/17 05:26:57;;;;;;;;;;;0.90;80.30;;;-0.45;75.46;97429.97;4002467;34;20240;-86
2022/03/17 05:29:29;;;;;;;;;;;1.00;79.50;;;-0.44;74.98;97437.88;4007402;34;20531;-85
2022/03/17 05:32:00;;;;;;;;;;;0.90;79.10;;;-0.44;74.50;97442.44;3980181;34;19906;-86
2022/03/17 05:34:29;;;;;;;;;;;1.00;78.80;;;-0.43;74.46;97444.94;3935654;35;20572;-85
2022/03/17 05:37:14;;;;;;;;;;;0.90;78.70;;;-0.43;74.44;97442.25;3940086;35;19906;-86
2022/03/17 05:40:26;;;;;;;;;;;0.90;78.50;;;-0.42;73.74;97448.47;3964253;35;20229;-85
2022/03/17 05:43:17;;;;;;;;;;;0.90;78.00;;;-0.43;73.76;97455.69;3970373;34;20173;-85
2022/03/17 05:46:00;;;;;;;;;;;1.00;78.00;;;-0.42;73.69;97456.56;3993774;34;20232;-87
2022/03/17 05:48:39;;;;;;;;;;;1.00;77.60;;;-0.44;73.72;97458.56;4006680;34;20095;-85
2022/03/17 05:51:08;;;;;;;;;;;1.00;77.60;;;-0.41;73.88;97464.44;3970068;35;20244;-86
2022/03/17 05:53:37;;;;;;;;;;;0.90;78.00;;;-0.39;76.17;97473.19;3955563;35;19906;-86
2022/03/17 05:56:07;;;;;;;;;;;1.00;80.30;;;-0.41;76.96;97469.00;3957151;35;20219;-84
2022/03/17 05:58:35;;;;;;;;;;;1.00;81.00;;;-0.39;76.72;97473.19;3958915;35;20524;-84
2022/03/17 06:01:04;;;;;;;;;;;1.00;81.40;;;-0.39;76.94;97467.81;3989147;35;19908;-85
2022/03/17 06:03:32;;;;;;;;;;;1.00;81.60;;;-0.39;77.05;97466.97;3985871;35;19915;-85
2022/03/17 06:06:01;;;;;;;;;;;1.00;81.60;;;-0.37;77.16;97475.69;3980540;35;20163;-85
2022/03/17 06:08:30;;;;;;;;;;;1.00;81.70;;;-0.37;76.97;97481.94;4003797;35;19905;-85
2022/03/17 06:10:58;;;;;;;;;;;1.00;81.70;;;-0.36;77.42;97485.44;3978365;35;20229;-85
2022/03/17 06:13:29;;;;;;;;;;;1.00;81.80;;;-0.36;77.60;97482.75;3966873;35;19924;-85
2022/03/17 06:15:58;;;;;;;;;;;1.00;81.90;;;-0.35;77.51;97489.81;3947848;35;20231;-86
2022/03/17 06:18:26;;;;;;;;;;;1.00;81.90;;;-0.38;77.52;97488.31;3975355;35;20228;-86
2022/03/17 06:20:55;;;;;;;;;;;1.00;81.80;;;-0.35;77.15;97495.22;3974372;35;20225;-85
2022/03/17 06:23:23;;;;;;;;;;;1.00;81.80;;;-0.37;77.46;97497.22;3976547;35;19917;-86
2022/03/17 06:25:56;;;;;;;;;;;1.00;81.70;;;-0.34;77.25;97499.59;3951547;35;20270;-85
2022/03/17 06:28:24;;;;;;;;;;;1.10;81.90;;;-0.34;77.62;97502.28;3976408;34;20214;-86
2022/03/17 06:30:56;;;;;;;;;;;1.00;81.70;;;-0.34;77.56;97507.66;3977822;34;19905;-86
2022/03/17 06:34:20;;;;;;;;;;;1.00;81.60;;;-0.36;77.27;97499.75;3994604;34;20207;-86
2022/03/17 06:37:19;;;;;;;;;;;1.00;81.60;;;-0.31;77.41;97508.16;3880209;35;20224;-86
2022/03/17 06:40:01;;;;;;;;;;;1.10;81.70;;;-0.31;77.25;97508.16;3922143;35;20102;-86
2022/03/17 06:42:37;;;;;;;;;;;1.10;81.70;;;-0.28;77.40;97516.91;3965457;35;20113;-86
2022/03/17 06:45:13;;;;;;;;;;;1.10;81.60;;;-0.29;77.57;97524.16;3973299;35;19928;-86
2022/03/17 06:47:48;;;;;;;;;;;1.10;81.50;;;-0.26;76.97;97520.25;3972762;35;19906;-87
2022/03/17 06:50:23;;;;;;;;;;;1.10;81.50;;;-0.22;76.57;97527.81;3973793;35;20112;-86
2022/03/17 06:52:56;;;;;;;;;;;1.10;81.20;;;-0.18;76.63;97520.25;3970008;34;20121;-86
2022/03/17 06:55:24;;;;;;;;;;;1.20;81.00;;;-0.16;76.95;97529.84;3996417;28;20237;-83
2022/03/17 06:57:53;;;;;;;;;;;1.20;81.10;;;-0.12;76.52;97521.41;3994818;34;19904;-83
2022/03/17 07:00:21;;;;;;;;;;;1.20;81.10;;;-0.03;76.33;97529.31;4004011;34;20528;-84
2022/03/17 07:02:51;;;;;;;;;;;1.30;80.90;;;0.06;76.24;97523.94;4025791;34;20292;-84
2022/03/17 07:05:20;;;;;;;;;;;1.40;80.70;;;0.12;75.90;97531.31;4032891;34;20242;-84
2022/03/17 07:07:48;;;;;;;;;;;1.40;80.60;;;0.16;75.74;97538.06;4010112;34;19912;-83
2022/03/17 07:10:17;;;;;;;;;;;1.50;80.40;;;0.24;75.97;97531.81;4032584;34;20220;-83
2022/03/17 07:12:47;;;;;;;;;;;1.50;80.40;;;0.28;75.98;97534.00;4011940;34;19909;-83
2022/03/17 07:15:15;;;;;;;;;;;1.60;80.20;;;0.28;75.40;97536.69;4000110;34;20226;-83
2022/03/17 07:17:44;;;;;;;;;;;1.60;79.90;;;0.26;75.41;97540.53;3978802;34;19905;-83
2022/03/17 07:20:15;;;;;;;;;;;1.60;79.70;;;0.23;75.35;97541.72;3982835;34;20240;-83
2022/03/17 07:22:43;;;;;;;;;;;1.60;79.80;;;0.29;75.86;97545.59;3980600;34;20214;-83
2022/03/17 07:25:13;;;;;;;;;;;1.60;80.00;;;0.32;75.62;97547.13;4000288;34;20236;-84
2022/03/17 07:27:43;;;;;;;;;;;1.60;80.00;;;0.38;75.75;97549.97;3999938;34;20562;-83
2022/03/17 07:30:13;;;;;;;;;;;1.70;80.10;;;0.40;75.37;97552.47;3977509;34;20230;-83
2022/03/17 07:32:42;;;;;;;;;;;1.70;79.90;;;0.37;75.34;97550.13;3998744;34;19920;-83
2022/03/17 07:35:11;;;;;;;;;;;1.70;79.70;;;0.35;75.27;97560.22;3977602;34;20212;-83
2022/03/17 07:37:41;;;;;;;;;;;1.70;79.60;;;0.32;75.40;97561.41;3976589;34;20239;-83
2022/03/17 07:40:11;;;;;;;;;;;1.70;79.70;;;0.30;75.32;97558.91;3997838;34;20258;-84
2022/03/17 07:42:39;;;;;;;;;;;1.70;79.80;;;0.28;75.57;97563.63;4004925;34;19904;-83
2022/03/17 07:45:27;;;;;;;;;;;1.60;79.90;;;0.36;75.79;97561.91;4023741;34;19908;-84
2022/03/17 07:48:14;;;;;;;;;;;1.70;80.00;;;0.40;75.33;97571.34;4022296;34;19904;-84
2022/03/17 07:50:55;;;;;;;;;;;1.70;79.90;;;0.39;75.36;97570.47;4001263;34;20209;-84
2022/03/17 07:53:25;;;;;;;;;;;1.70;79.80;;;0.36;75.11;97570.84;4001399;34;19904;-84
2022/03/17 07:55:54;;;;;;;;;;;1.70;79.80;;;0.33;75.26;97573.00;4024126;34;19904;-83
2022/03/17 07:58:23;;;;;;;;;;;1.70;79.80;;;0.30;75.86;97574.22;4023288;34;19904;-82
2022/03/17 08:00:52;;;;;;;;;;;1.70;79.90;;;0.27;75.79;97569.16;4023334;34;19912;-83
2022/03/17 08:03:21;;;;;;;;;;;1.70;80.00;;;0.23;75.56;97567.84;4002200;34;19905;-83
2022/03/17 08:05:49;;;;;;;;;;;1.60;79.90;;;0.21;76.04;97570.69;4002724;34;20200;-83
2022/03/17 08:08:18;;;;;;;;;;;1.60;80.00;;;0.20;75.95;97574.38;4003570;34;20221;-84
2022/03/17 08:10:49;;;;;;;;;;;1.60;80.20;;;0.20;76.02;97589.72;4025240;34;20021;-83
2022/03/17 08:13:17;;;;;;;;;;;1.60;80.20;;;0.16;76.27;97578.44;4002884;34;20205;-83
2022/03/17 08:15:46;;;;;;;;;;;1.60;80.30;;;0.15;76.21;97580.28;4003609;34;20089;-83
2022/03/17 08:18:15;;;;;;;;;;;1.50;80.40;;;0.14;75.90;97580.47;4025116;34;20520;-84
2022/03/17 08:20:43;;;;;;;;;;;1.60;80.30;;;0.15;76.20;97584.84;4003980;34;19905;-83
2022/03/17 08:23:15;;;;;;;;;;;1.50;80.30;;;0.15;76.00;97585.66;4024910;34;20234;-84
2022/03/17 08:25:45;;;;;;;;;;;1.50;80.20;;;0.16;75.98;97597.31;4002944;34;19905;-83
2022/03/17 08:28:17;;;;;;;;;;;1.60;80.20;;;0.15;75.91;97588.38;4008284;34;19905;-83
2022/03/17 08:30:47;;;;;;;;;;;1.50;80.20;;;0.17;75.86;97596.28;4032093;34;20176;-84
2022/03/17 08:33:16;;;;;;;;;;;1.50;80.20;;;0.16;76.06;97594.59;4005460;34;19905;-83
2022/03/17 08:35:44;;;;;;;;;;;1.50;80.40;;;0.16;76.26;97594.59;4005428;34;20215;-83
2022/03/17 08:38:13;;;;;;;;;;;1.50;80.20;;;0.17;75.95;97590.03;3985939;34;20520;-84
2022/03/17 08:40:43;;;;;;;;;;;1.50;80.20;;;0.19;76.13;97593.41;4007222;34;19905;-83
2022/03/17 08:43:12;;;;;;;;;;;1.50;80.20;;;0.17;76.00;97590.91;3984726;34;19905;-83
2022/03/17 08:51:15;;;;;;;;;;;1.50;80.00;;;0.22;75.62;97599.28;3983709;35;20089;-84
2022/03/17 08:53:43;;;;;;;;;;;1.60;80.10;;;0.24;75.70;97601.84;4004007;34;20224;-83
2022/03/17 08:56:12;;;;;;;;;;;1.60;80.00;;;0.29;75.16;97604.84;4004412;34;19904;-84
2022/03/17 08:58:40;;;;;;;;;;;1.60;79.90;;;0.28;75.48;97601.31;3980756;34;20547;-83
2022/03/17 09:01:11;;;;;;;;;;;1.60;79.60;;;0.28;75.45;97598.63;4005639;34;20224;-83
2022/03/17 09:03:39;;;;;;;;;;;1.70;79.80;;;0.30;75.44;97598.44;3983958;34;20213;-83
2022/03/17 09:06:10;;;;;;;;;;;1.60;79.70;;;0.32;75.37;97601.81;4004399;34;19905;-83
2022/03/17 09:08:41;;;;;;;;;;;1.60;79.60;;;0.35;75.84;97604.19;3998629;34;20224;-83
2022/03/17 09:11:12;;;;;;;;;;;1.70;79.80;;;0.35;75.57;97604.19;4000406;34;20250;-84
2022/03/17 09:13:40;;;;;;;;;;;1.70;79.80;;;0.37;75.11;97604.00;3998997;34;20224;-83
2022/03/17 09:16:10;;;;;;;;;;;1.70;79.40;;;0.38;75.11;97603.84;3977773;34;20224;-83
2022/03/17 09:18:41;;;;;;;;;;;1.70;79.40;;;0.40;75.41;97603.66;3999299;34;20242;-83
2022/03/17 09:21:10;;;;;;;;;;;1.80;79.40;;;0.41;75.20;97602.66;3997764;34;20261;-83
2022/03/17 09:23:39;;;;;;;;;;;1.80;79.30;;;0.42;74.59;97607.84;3995901;34;19905;-83
2022/03/17 09:26:07;;;;;;;;;;;1.80;79.10;;;0.45;74.84;97607.53;3973225;34;20216;-84
2022/03/17 09:28:36;;;;;;;;;;;1.80;78.80;;;0.48;74.52;97610.88;3994401;34;20228;-83
2022/03/17 09:31:06;;;;;;;;;;;1.80;78.80;;;0.49;74.24;97615.28;3994030;34;23978;-84
2022/03/17 09:33:36;;;;;;;;;;;1.80;78.40;;;0.50;74.27;97616.94;3974333;34;20213;-83
2022/03/17 09:36:05;;;;;;;;;;;1.80;78.80;;;0.47;74.91;97615.41;3972879;34;20517;-83
2022/03/17 09:38:34;;;;;;;;;;;1.80;79.00;;;0.47;74.83;97619.97;3972572;34;20255;-84
2022/03/17 09:41:23;;;;;;;;;;;1.80;79.10;;;0.45;74.92;97612.09;3975095;34;20191;-84
2022/03/17 09:43:51;;;;;;;;;;;1.80;79.00;;;0.42;74.29;97613.25;3996437;34;19916;-84
2022/03/17 09:46:21;;;;;;;;;;;1.80;78.90;;;0.43;75.08;97611.41;3974079;34;19937;-84
2022/03/17 09:48:53;;;;;;;;;;;1.80;78.90;;;0.42;75.25;97620.50;3974866;34;19909;-83
2022/03/17 09:51:22;;;;;;;;;;;1.80;79.10;;;0.40;74.98;97617.13;3997575;34;20457;-84
2022/03/17 09:53:53;;;;;;;;;;;1.80;79.10;;;0.41;75.27;97625.03;3976557;34;20246;-84
2022/03/17 09:56:23;;;;;;;;;;;1.80;79.20;;;0.42;75.37;97636.66;3978103;34;20237;-84
2022/03/17 09:58:53;;;;;;;;;;;1.80;79.20;;;0.40;75.23;97631.44;3982213;35;19905;-84
2022/03/17 10:01:21;;;;;;;;;;;1.80;79.30;;;0.41;75.36;97630.41;4001241;35;20219;-84
2022/03/17 10:03:51;;;;;;;;;;;1.80;79.30;;;0.40;75.20;97633.28;3978963;34;20237;-84
2022/03/17 10:06:20;;;;;;;;;;;1.80;79.20;;;0.40;74.96;97633.28;4001957;34;20204;-84
2022/03/17 10:08:49;;;;;;;;;;;1.80;79.20;;;0.38;75.34;97630.78;3981152;34;19912;-84
2022/03/17 10:11:19;;;;;;;;;;;1.80;79.20;;;0.38;74.90;97629.94;3981090;34;19905;-84
2022/03/17 10:13:48;;;;;;;;;;;1.80;79.20;;;0.38;74.89;97635.31;3982307;34;19905;-84
2022/03/17 10:16:18;;;;;;;;;;;1.70;79.20;;;0.37;75.07;97633.63;3986877;34;19912;-84
2022/03/17 10:18:47;;;;;;;;;;;1.80;79.20;;;0.36;75.40;97629.25;3987053;34;19905;-84
2022/03/17 10:21:24;;;;;;;;;;;1.70;79.30;;;0.34;75.12;97624.03;4003793;34;20104;-84
2022/03/17 10:23:54;;;;;;;;;;;1.70;79.30;;;0.35;75.17;97632.94;3980965;34;19912;-84
2022/03/17 10:26:40;;;;;;;;;;;1.70;80.20;;;0.35;75.05;97638.34;4023925;34;19905;-84
2022/03/17 10:29:11;;;;;;;;;;;1.70;79.30;;;0.32;75.25;97631.44;4002626;34;19905;-83
2022/03/17 10:31:59;;;;;;;;;;;1.70;79.40;;;0.33;74.89;97633.13;3981026;34;19904;-84
2022/03/17 10:34:30;;;;;;;;;;;1.70;79.20;;;0.34;75.23;97640.19;4001071;34;20227;-84
2022/03/17 10:37:11;;;;;;;;;;;1.70;79.50;;;0.34;75.31;97640.19;3979778;34;20041;-84
2022/03/17 10:39:42;;;;;;;;;;;1.70;79.50;;;0.34;75.38;97633.97;3981257;34;19905;-84
2022/03/17 10:42:13;;;;;;;;;;;1.70;79.60;;;0.34;75.25;97640.19;3981231;34;19912;-84
2022/03/17 10:44:42;;;;;;;;;;;1.70;79.50;;;0.33;75.25;97633.13;4002755;34;20524;-84
2022/03/17 10:47:10;;;;;;;;;;;1.70;79.60;;;0.36;75.50;97640.03;4001582;34;19909;-84
2022/03/17 10:49:39;;;;;;;;;;;1.70;79.60;;;0.38;75.39;97638.00;3981555;34;20221;-84
2022/03/17 10:52:09;;;;;;;;;;;1.70;79.40;;;0.38;75.57;97643.41;3983556;34;19905;-83
2022/03/17 10:54:38;;;;;;;;;;;1.70;79.50;;;0.39;75.26;97637.81;4009766;34;20196;-83
2022/03/17 10:57:11;;;;;;;;;;;1.80;79.30;;;0.40;75.01;97627.91;4008279;34;20227;-84
2022/03/17 10:59:42;;;;;;;;;;;1.80;79.20;;;0.42;75.22;97636.66;3991381;34;20217;-84
2022/03/17 11:02:12;;;;;;;;;;;1.80;79.30;;;0.42;75.28;97632.09;3989690;34;20089;-84
2022/03/17 11:04:43;;;;;;;;;;;1.80;79.20;;;0.43;74.83;97639.19;3990488;34;20551;-84
2022/03/17 11:07:15;;;;;;;;;;;1.80;79.10;;;0.42;74.75;97639.34;4011578;34;19905;-84
2022/03/17 11:09:44;;;;;;;;;;;1.80;79.10;;;0.42;75.55;97636.66;3990095;34;20199;-84
2022/03/17 11:12:17;;;;;;;;;;;1.80;79.20;;;0.41;74.75;97635.81;3992461;34;20586;-84
2022/03/17 11:14:46;;;;;;;;;;;1.80;79.20;;;0.42;74.92;97637.50;3990121;34;20221;-84
2022/03/17 11:17:23;;;;;;;;;;;1.80;79.30;;;0.41;75.11;97635.81;3987237;34;20200;-84
2022/03/17 11:19:51;;;;;;;;;;;1.80;79.30;;;0.41;75.21;97630.41;4008980;34;20136;-84
2022/03/17 11:22:23;;;;;;;;;;;1.80;79.30;;;0.41;74.88;97634.97;3987766;34;20228;-83
2022/03/17 11:25:19;;;;;;;;;;;1.80;79.30;;;0.41;75.34;97624.19;4009349;34;20240;-84
2022/03/17 11:27:48;;;;;;;;;;;1.80;79.40;;;0.39;75.61;97626.22;4030560;34;19905;-83
2022/03/17 11:30:17;;;;;;;;;;;1.80;79.40;;;0.40;75.26;97630.59;4009417;34;20251;-84
2022/03/17 11:32:54;;;;;;;;;;;1.80;79.30;;;0.40;75.17;97636.00;4008396;34;19904;-84
2022/03/17 11:35:23;;;;;;;;;;;1.80;79.30;;;0.42;75.56;97636.66;4035085;34;19905;-84
2022/03/17 11:38:14;;;;;;;;;;;1.80;79.40;;;0.42;75.43;97626.72;4034525;34;20612;-84
2022/03/17 11:41:05;;;;;;;;;;;1.80;79.40;;;0.41;75.25;97624.19;4034427;34;20206;-84
2022/03/17 11:44:04;;;;;;;;;;;1.80;79.20;;;0.41;75.02;97630.41;4033540;34;20225;-84
2022/03/17 11:46:42;;;;;;;;;;;1.80;79.40;;;0.40;75.43;97633.28;4011137;34;19912;-84
2022/03/17 11:49:25;;;;;;;;;;;1.80;79.40;;;0.41;75.47;97624.19;4010304;34;20212;-83
2022/03/17 11:51:58;;;;;;;;;;;1.80;79.30;;;0.41;75.41;97625.03;4032106;34;20533;-84
2022/03/17 11:54:29;;;;;;;;;;;1.80;79.50;;;0.41;75.28;97618.81;4010829;34;20210;-84
2022/03/17 11:57:00;;;;;;;;;;;1.80;79.50;;;0.39;75.59;97610.88;4032095;34;20486;-84
2022/03/17 11:59:31;;;;;;;;;;;1.80;79.60;;;0.39;75.64;97618.97;4034847;34;20219;-84